Del Rio, Tennessee
Current Conditions -  °F | °C
As of 5:15 PM on Saturday 25 Oct 2014 (Local Time) from KMOR Reporting Station
Few Clouds Few Clouds  
Wind Chill: 68°   Ceiling: Unl
Heat Index: 68°   Visibility: 10mi
Dew Point: 48°   Wind: 6mph
Humidity: 49%   Direction: 230°SW
Pressure: 30.03"   Gusts: NA
Location:  35.92°N, 83.03°W
Report Text: KMOR 252115Z AUTO 23005KT 10SM FEW040 20/09 A3003 RMK
Loading
Personal Weather Stations






























Interactive Weather Map New forecast layout! Learn more

10-Day Weather Forecast

Advertisements
Track Severe Weather on mobile